Time,TemperatureF,DewpointF,PressureIn,WindDirection,WindDirectionDegrees,WindSpeedMPH,WindSpeedGustMPH,Humidity,HourlyPrecipIn,Conditions,Clouds,dailyrainin,SolarRadiationWatts/m^2,SoftwareType,DateUTC
2013-08-07 00:05:00,78.3,74.0,29.94,SSW,202,0.0,0.0,86,0.00,,,0.00,0,weatherlink.com 1.10,2013-08-07 04:05:00,
2013-08-07 00:20:00,78.1,74.0,29.93,SSW,202,0.0,0.0,87,0.00,,,0.00,0,weatherlink.com 1.10,2013-08-07 04:20:00,
2013-08-07 00:35:00,77.8,74.0,29.93,SSW,202,0.0,0.0,87,0.00,,,0.00,0,weatherlink.com 1.10,2013-08-07 04:35:00,
2013-08-07 00:51:00,77.5,74.0,29.93,SSW,202,0.0,0.0,88,0.00,,,0.00,0,weatherlink.com 1.10,2013-08-07 04:51:00,
2013-08-07 01:06:00,77.8,74.0,29.92,SSW,202,0.0,1.0,88,0.00,,,0.00,0,weatherlink.com 1.10,2013-08-07 05:06:00,
2013-08-07 01:21:00,77.9,75.0,29.93,SSW,202,0.0,1.0,89,0.00,,,0.00,0,weatherlink.com 1.10,2013-08-07 05:21:00,
2013-08-07 01:36:00,77.6,74.0,29.92,SSW,202,0.0,0.0,89,0.00,,,0.00,0,weatherlink.com 1.10,2013-08-07 05:36:00,
2013-08-07 01:51:00,77.6,74.0,29.92,SSW,202,0.0,0.0,89,0.00,,,0.00,0,weatherlink.com 1.10,2013-08-07 05:51:00,
2013-08-07 02:06:00,77.6,74.0,29.91,SSW,202,0.0,1.0,89,0.00,,,0.00,0,weatherlink.com 1.10,2013-08-07 06:06:00,
2013-08-07 02:21:00,77.4,74.0,29.91,SSW,202,0.0,0.0,89,0.00,,,0.00,0,weatherlink.com 1.10,2013-08-07 06:21:00,
2013-08-07 02:36:00,77.2,74.0,29.90,SSW,202,0.0,0.0,89,0.00,,,0.00,0,weatherlink.com 1.10,2013-08-07 06:36:00,
2013-08-07 02:51:00,76.9,74.0,29.90,SSW,202,0.0,0.0,90,0.00,,,0.00,0,weatherlink.com 1.10,2013-08-07 06:51:00,
2013-08-07 03:06:00,76.7,74.0,29.90,SSW,202,0.0,0.0,90,0.00,,,0.00,0,weatherlink.com 1.10,2013-08-07 07:06:00,
2013-08-07 03:36:00,76.8,74.0,29.90,SSW,202,0.0,0.0,91,0.00,,,0.00,0,weatherlink.com 1.10,2013-08-07 07:36:00,
2013-08-07 03:51:00,76.7,74.0,29.90,SSW,202,0.0,0.0,91,0.00,,,0.00,0,weatherlink.com 1.10,2013-08-07 07:51:00,
2013-08-07 04:06:00,76.9,74.0,29.90,SSW,202,0.0,0.0,91,0.00,,,0.00,0,weatherlink.com 1.10,2013-08-07 08:06:00,
2013-08-07 04:21:00,77.1,74.0,29.89,SSW,202,0.0,0.0,91,0.00,,,0.00,0,weatherlink.com 1.10,2013-08-07 08:21:00,
2013-08-07 04:36:00,77.6,75.0,29.89,SSW,202,0.0,0.0,92,0.00,,,0.00,0,weatherlink.com 1.10,2013-08-07 08:36:00,
2013-08-07 04:51:00,77.6,75.0,29.90,SSW,202,0.0,0.0,92,0.00,,,0.00,0,weatherlink.com 1.10,2013-08-07 08:51:00,
2013-08-07 05:06:00,77.8,75.0,29.90,SSW,202,0.0,0.0,92,0.00,,,0.00,0,weatherlink.com 1.10,2013-08-07 09:06:00,
2013-08-07 05:21:00,77.9,76.0,29.90,SSW,202,0.0,1.0,92,0.00,,,0.00,0,weatherlink.com 1.10,2013-08-07 09:21:00,
2013-08-07 05:36:00,78.2,76.0,29.90,South,188,0.0,1.0,92,0.00,,,0.00,0,weatherlink.com 1.10,2013-08-07 09:36:00,
2013-08-07 05:51:00,78.3,76.0,29.91,East,99,1.0,2.0,91,0.00,,,0.00,0,weatherlink.com 1.10,2013-08-07 09:51:00,
2013-08-07 06:06:00,78.4,76.0,29.91,East,99,0.0,0.0,91,0.00,,,0.00,0,weatherlink.com 1.10,2013-08-07 10:06:00,
2013-08-07 06:21:00,78.3,76.0,29.91,East,99,0.0,0.0,91,0.00,,,0.00,0,weatherlink.com 1.10,2013-08-07 10:21:00,
2013-08-07 06:36:00,78.3,76.0,29.91,East,99,0.0,0.0,91,0.00,,,0.00,0,weatherlink.com 1.10,2013-08-07 10:36:00,
2013-08-07 06:51:00,78.4,76.0,29.91,East,99,0.0,0.0,91,0.00,,,0.00,0,weatherlink.com 1.10,2013-08-07 10:51:00,
2013-08-07 07:06:00,78.2,75.0,29.93,East,99,0.0,0.0,91,0.00,,,0.00,9,weatherlink.com 1.10,2013-08-07 11:06:00,
2013-08-07 07:21:00,78.1,75.0,29.92,East,99,0.0,0.0,91,0.00,,,0.00,33,weatherlink.com 1.10,2013-08-07 11:21:00,
2013-08-07 07:37:00,79.7,77.0,29.93,East,99,0.0,1.0,92,0.00,,,0.00,93,weatherlink.com 1.10,2013-08-07 11:37:00,
2013-08-07 07:51:00,80.4,78.0,29.93,East,99,1.0,1.0,91,0.00,,,0.00,146,weatherlink.com 1.10,2013-08-07 11:51:00,
2013-08-07 08:06:00,82.1,79.0,29.93,East,99,1.0,1.0,89,0.00,,,0.00,185,weatherlink.com 1.10,2013-08-07 12:06:00,
2013-08-07 08:22:00,83.9,79.0,29.93,East,99,2.0,2.0,85,0.00,,,0.00,258,weatherlink.com 1.10,2013-08-07 12:22:00,
2013-08-07 08:38:00,84.4,78.0,29.94,SE,144,0.0,8.0,82,0.00,,,0.00,325,weatherlink.com 1.10,2013-08-07 12:38:00,
2013-08-07 09:08:00,83.5,76.0,29.95,SE,132,0.0,3.0,79,0.00,,,0.00,160,weatherlink.com 1.10,2013-08-07 13:08:00,
2013-08-07 09:22:00,85.6,78.0,29.94,SE,126,0.0,3.0,78,0.00,,,0.00,497,weatherlink.com 1.10,2013-08-07 13:22:00,
2013-08-07 09:38:00,85.8,77.0,29.95,SE,127,2.0,6.0,75,0.00,,,0.00,195,weatherlink.com 1.10,2013-08-07 13:38:00,
2013-08-07 09:52:00,84.2,77.0,29.95,ESE,120,3.0,4.0,78,0.00,,,0.00,202,weatherlink.com 1.10,2013-08-07 13:52:00,
2013-08-07 10:08:00,85.6,77.0,29.95,SSW,201,3.0,7.0,76,0.00,,,0.00,812,weatherlink.com 1.10,2013-08-07 14:08:00,
2013-08-07 10:22:00,86.5,78.0,29.95,ESE,118,2.0,8.0,75,0.00,,,0.00,773,weatherlink.com 1.10,2013-08-07 14:22:00,
2013-08-07 10:38:00,86.5,77.0,29.95,East,84,3.0,9.0,74,0.00,,,0.00,733,weatherlink.com 1.10,2013-08-07 14:38:00,
2013-08-07 10:52:00,86.3,78.0,29.96,East,80,4.0,7.0,75,0.00,,,0.00,780,weatherlink.com 1.10,2013-08-07 14:52:00,
2013-08-07 11:07:00,86.7,77.0,29.96,SE,130,5.0,10.0,72,0.00,,,0.00,919,weatherlink.com 1.10,2013-08-07 15:07:00,
2013-08-07 11:22:00,87.3,78.0,29.96,ESE,104,4.0,10.0,73,0.00,,,0.00,1002,weatherlink.com 1.10,2013-08-07 15:22:00,
2013-08-07 11:37:00,87.8,77.0,29.96,SE,146,3.0,9.0,71,0.00,,,0.00,991,weatherlink.com 1.10,2013-08-07 15:37:00,
2013-08-07 11:52:00,87.6,77.0,29.95,South,180,5.0,9.0,70,0.00,,,0.00,309,weatherlink.com 1.10,2013-08-07 15:52:00,
2013-08-07 12:07:00,86.6,77.0,29.95,SE,136,3.0,10.0,73,0.00,,,0.00,417,weatherlink.com 1.10,2013-08-07 16:07:00,
2013-08-07 12:22:00,86.5,77.0,29.95,SSE,153,3.0,12.0,74,0.00,,,0.00,1088,weatherlink.com 1.10,2013-08-07 16:22:00,
2013-08-07 12:37:00,86.6,77.0,29.95,ESE,115,4.0,11.0,73,0.00,,,0.00,1005,weatherlink.com 1.10,2013-08-07 16:37:00,
2013-08-07 12:52:00,87.7,77.0,29.95,SSE,155,2.0,12.0,71,0.00,,,0.00,1063,weatherlink.com 1.10,2013-08-07 16:52:00,
2013-08-07 13:08:00,86.1,77.0,29.95,ESE,119,12.0,12.0,75,0.00,,,0.00,759,weatherlink.com 1.10,2013-08-07 17:08:00,
2013-08-07 13:23:00,84.2,77.0,29.96,ENE,77,7.0,14.0,78,0.00,,,0.00,494,weatherlink.com 1.10,2013-08-07 17:23:00,
2013-08-07 13:38:00,84.8,77.0,29.96,SE,140,2.0,13.0,77,0.00,,,0.00,710,weatherlink.com 1.10,2013-08-07 17:38:00,
2013-08-07 13:53:00,85.2,77.0,29.95,SE,132,1.0,11.0,76,0.00,,,0.00,993,weatherlink.com 1.10,2013-08-07 17:53:00,
2013-08-07 14:08:00,86.8,76.0,29.95,SE,136,3.0,8.0,71,0.00,,,0.00,1192,weatherlink.com 1.10,2013-08-07 18:08:00,
2013-08-07 14:23:00,86.5,77.0,29.95,SSE,151,3.0,9.0,74,0.00,,,0.00,1127,weatherlink.com 1.10,2013-08-07 18:23:00,
2013-08-07 14:53:00,86.3,76.0,29.94,ESE,104,6.0,8.0,71,0.00,,,0.00,543,weatherlink.com 1.10,2013-08-07 18:53:00,
2013-08-07 15:08:00,84.4,76.0,29.94,ESE,115,6.0,10.0,76,0.00,,,0.00,383,weatherlink.com 1.10,2013-08-07 19:08:00,
2013-08-07 15:23:00,84.6,77.0,29.93,East,94,3.0,10.0,77,0.00,,,0.00,332,weatherlink.com 1.10,2013-08-07 19:23:00,
2013-08-07 15:38:00,85.0,76.0,29.93,SE,130,2.0,8.0,75,0.00,,,0.00,292,weatherlink.com 1.10,2013-08-07 19:38:00,
2013-08-07 15:53:00,85.5,77.0,29.92,South,174,2.0,8.0,75,0.00,,,0.00,348,weatherlink.com 1.10,2013-08-07 19:53:00,
2013-08-07 16:08:00,85.9,77.0,29.92,East,101,3.0,8.0,74,0.00,,,0.00,378,weatherlink.com 1.10,2013-08-07 20:08:00,
2013-08-07 16:23:00,85.2,77.0,29.92,ESE,111,3.0,9.0,76,0.00,,,0.00,309,weatherlink.com 1.10,2013-08-07 20:23:00,
2013-08-07 16:38:00,85.2,77.0,29.91,SSE,154,2.0,9.0,75,0.00,,,0.00,322,weatherlink.com 1.10,2013-08-07 20:38:00,
2013-08-07 16:53:00,85.7,76.0,29.92,ESE,113,4.0,13.0,73,0.00,,,0.00,262,weatherlink.com 1.10,2013-08-07 20:53:00,
2013-08-07 17:08:00,85.5,76.0,29.92,SE,129,5.0,7.0,74,0.00,,,0.00,197,weatherlink.com 1.10,2013-08-07 21:08:00,
2013-08-07 17:23:00,85.4,76.0,29.93,ENE,65,3.0,7.0,73,0.00,,,0.00,162,weatherlink.com 1.10,2013-08-07 21:23:00,
2013-08-07 17:38:00,85.1,76.0,29.93,ESE,123,2.0,8.0,74,0.00,,,0.00,190,weatherlink.com 1.10,2013-08-07 21:38:00,
2013-08-07 17:53:00,85.3,76.0,29.93,East,90,0.0,7.0,74,0.00,,,0.00,160,weatherlink.com 1.10,2013-08-07 21:53:00,
2013-08-07 18:08:00,85.4,76.0,29.92,SE,132,5.0,8.0,74,0.00,,,0.00,139,weatherlink.com 1.10,2013-08-07 22:08:00,
2013-08-07 18:23:00,84.9,76.0,29.92,ESE,121,4.0,9.0,74,0.00,,,0.00,95,weatherlink.com 1.10,2013-08-07 22:23:00,
2013-08-07 18:38:00,84.6,76.0,29.92,SSE,159,2.0,10.0,74,0.00,,,0.00,83,weatherlink.com 1.10,2013-08-07 22:38:00,
2013-08-07 18:53:00,84.6,76.0,29.91,South,171,4.0,5.0,74,0.00,,,0.00,72,weatherlink.com 1.10,2013-08-07 22:53:00,
2013-08-07 19:08:00,84.6,76.0,29.91,South,174,2.0,8.0,76,0.00,,,0.00,53,weatherlink.com 1.10,2013-08-07 23:08:00,
2013-08-07 19:23:00,84.2,75.0,29.91,SE,140,2.0,7.0,74,0.00,,,0.00,33,weatherlink.com 1.10,2013-08-07 23:23:00,
2013-08-07 19:38:00,83.8,76.0,29.91,ESE,115,3.0,7.0,76,0.00,,,0.00,14,weatherlink.com 1.10,2013-08-07 23:38:00,
2013-08-07 19:53:00,83.5,75.0,29.92,SE,130,2.0,7.0,76,0.00,,,0.00,7,weatherlink.com 1.10,2013-08-07 23:53:00,
2013-08-07 20:08:00,83.5,76.0,29.92,SE,137,1.0,7.0,78,0.00,,,0.00,0,weatherlink.com 1.10,2013-08-08 00:08:00,
2013-08-07 20:23:00,83.2,76.0,29.92,ESE,113,3.0,6.0,79,0.00,,,0.00,0,weatherlink.com 1.10,2013-08-08 00:23:00,
2013-08-07 20:38:00,82.9,76.0,29.92,ESE,103,4.0,6.0,79,0.00,,,0.00,0,weatherlink.com 1.10,2013-08-08 00:38:00,
2013-08-07 20:53:00,82.9,76.0,29.92,SSE,157,0.0,4.0,80,0.00,,,0.00,0,weatherlink.com 1.10,2013-08-08 00:53:00,
2013-08-07 21:08:00,82.8,76.0,29.93,SSE,150,2.0,6.0,80,0.00,,,0.00,0,weatherlink.com 1.10,2013-08-08 01:08:00,
2013-08-07 21:23:00,82.9,76.0,29.94,ESE,119,2.0,4.0,79,0.00,,,0.00,0,weatherlink.com 1.10,2013-08-08 01:23:00,
2013-08-07 21:38:00,82.9,76.0,29.94,ESE,110,0.0,3.0,79,0.00,,,0.00,0,weatherlink.com 1.10,2013-08-08 01:38:00,
2013-08-07 21:53:00,83.0,76.0,29.95,SSE,157,1.0,3.0,80,0.00,,,0.00,0,weatherlink.com 1.10,2013-08-08 01:53:00,
2013-08-07 22:08:00,82.9,76.0,29.95,SE,134,0.0,2.0,80,0.00,,,0.00,0,weatherlink.com 1.10,2013-08-08 02:08:00,
2013-08-07 22:23:00,82.9,76.0,29.96,ESE,123,2.0,5.0,80,0.00,,,0.00,0,weatherlink.com 1.10,2013-08-08 02:23:00,
2013-08-07 22:38:00,83.0,76.0,29.97,ESE,113,2.0,6.0,79,0.00,,,0.00,0,weatherlink.com 1.10,2013-08-08 02:38:00,
2013-08-07 22:53:00,83.0,76.0,29.97,ESE,102,3.0,4.0,79,0.00,,,0.00,0,weatherlink.com 1.10,2013-08-08 02:53:00,
2013-08-07 23:08:00,82.8,76.0,29.97,ESE,105,2.0,7.0,79,0.00,,,0.00,0,weatherlink.com 1.10,2013-08-08 03:08:00,
2013-08-07 23:23:00,82.8,76.0,29.97,East,90,2.0,6.0,79,0.00,,,0.00,0,weatherlink.com 1.10,2013-08-08 03:23:00,
2013-08-07 23:38:00,82.5,75.0,29.98,ESE,119,2.0,3.0,79,0.00,,,0.00,0,weatherlink.com 1.10,2013-08-08 03:38:00,
2013-08-07 23:53:00,83.0,75.0,29.97,ESE,108,1.0,7.0,77,0.00,,,0.00,0,weatherlink.com 1.10,2013-08-08 03:53:00,